createdAt,value
2018-05-08T00:00:37.522Z,0.50
2018-05-08T00:03:05.018Z,0.50
2018-05-08T00:05:32.522Z,0.43
2018-05-08T00:08:00.939Z,0.70
2018-05-08T00:10:29.194Z,0.47
2018-05-08T00:12:56.684Z,0.43
2018-05-08T00:15:24.168Z,0.47
2018-05-08T00:17:52.461Z,0.60
2018-05-08T00:20:20.726Z,0.60
2018-05-08T00:22:48.353Z,0.60
2018-05-08T00:25:15.816Z,0.60
2018-05-08T00:27:43.321Z,0.60
2018-05-08T00:30:10.813Z,0.50
2018-05-08T00:32:38.305Z,0.57
2018-05-08T00:35:06.532Z,0.50
2018-05-08T00:37:34.095Z,0.80
2018-05-08T00:40:01.577Z,0.50
2018-05-08T00:42:29.065Z,0.40
2018-05-08T00:44:56.540Z,0.40
2018-05-08T00:47:24.052Z,0.50
2018-05-08T00:49:52.312Z,0.50
2018-05-08T00:52:19.917Z,0.40
2018-05-08T00:54:59.875Z,0.40
2018-05-08T00:57:27.370Z,0.50
2018-05-08T00:59:54.951Z,0.40
2018-05-08T01:02:22.433Z,0.50
2018-05-08T01:04:49.911Z,0.60
2018-05-08T01:07:17.416Z,0.50
2018-05-08T01:09:44.887Z,0.30
2018-05-08T01:12:12.369Z,0.50
2018-05-08T01:14:40.701Z,0.50
2018-05-08T01:17:08.232Z,0.30
2018-05-08T01:19:36.447Z,0.60
2018-05-08T01:22:03.964Z,0.60
2018-05-08T01:24:31.436Z,0.47
2018-05-08T01:26:58.925Z,0.57
2018-05-08T01:29:26.396Z,0.43
2018-05-08T01:31:54.197Z,0.63
2018-05-08T01:34:21.699Z,0.30
2018-05-08T01:36:49.187Z,0.60
2018-05-08T01:39:16.663Z,0.50
2018-05-08T01:41:44.152Z,0.37
2018-05-08T01:44:11.626Z,0.50
2018-05-08T01:46:39.222Z,0.50
2018-05-08T01:49:07.452Z,0.47
2018-05-08T01:51:35.695Z,0.30
2018-05-08T01:54:03.176Z,0.60
2018-05-08T01:56:31.426Z,0.40
2018-05-08T01:58:58.984Z,0.50
2018-05-08T02:01:26.400Z,0.43
2018-05-08T02:03:53.982Z,0.50
2018-05-08T02:06:21.461Z,0.70
2018-05-08T02:08:49.797Z,0.57
2018-05-08T02:11:17.321Z,0.43
2018-05-08T02:13:44.831Z,0.50
2018-05-08T02:16:12.329Z,0.73
2018-05-08T02:18:39.820Z,0.40
2018-05-08T02:21:07.304Z,0.60
2018-05-08T02:23:35.560Z,0.60
2018-05-08T02:26:03.036Z,0.60
2018-05-08T02:28:30.553Z,0.30
2018-05-08T02:30:58.037Z,0.77
2018-05-08T02:33:25.537Z,0.63
2018-05-08T02:35:53.012Z,0.53
2018-05-08T02:38:20.628Z,0.60
2018-05-08T02:40:48.136Z,0.60
2018-05-08T02:43:15.641Z,0.97
2018-05-08T02:45:43.113Z,0.57
2018-05-08T02:48:10.592Z,0.50
2018-05-08T02:50:38.837Z,0.50
2018-05-08T02:53:06.333Z,0.30
2018-05-08T02:55:33.830Z,0.53
2018-05-08T02:58:02.080Z,0.47
2018-05-08T03:00:29.552Z,0.70
2018-05-08T03:02:57.060Z,0.50
2018-05-08T03:05:25.348Z,0.67
2018-05-08T03:07:53.045Z,0.60
2018-05-08T03:10:20.520Z,0.50
2018-05-08T03:12:48.004Z,0.60
2018-05-08T03:15:15.524Z,0.50
2018-05-08T03:17:43.469Z,0.60
2018-05-08T03:20:10.960Z,0.70
2018-05-08T03:22:38.439Z,0.70
2018-05-08T03:25:05.920Z,0.60
2018-05-08T03:27:33.489Z,0.50
2018-05-08T03:30:00.962Z,0.67
2018-05-08T03:32:28.452Z,0.40
2018-05-08T03:34:56.701Z,0.77
2018-05-08T03:37:24.219Z,0.80
2018-05-08T03:39:51.731Z,0.50
2018-05-08T03:42:19.220Z,0.80
2018-05-08T03:44:46.691Z,0.77
2018-05-08T03:47:14.280Z,0.50
2018-05-08T03:49:42.524Z,0.73
2018-05-08T03:52:10.008Z,0.50
2018-05-08T03:54:37.479Z,0.80
2018-05-08T03:57:04.953Z,0.67
2018-05-08T03:59:32.444Z,0.70
2018-05-08T04:02:11.681Z,0.70
2018-05-08T04:07:54.430Z,0.40
2018-05-08T04:10:21.936Z,0.60
2018-05-08T04:12:49.429Z,0.80
2018-05-08T04:15:17.671Z,0.80
2018-05-08T04:17:45.232Z,1.20
2018-05-08T04:20:12.704Z,0.80
2018-05-08T04:22:40.215Z,0.80
2018-05-08T04:25:07.700Z,0.63
2018-05-08T04:27:35.164Z,0.93
2018-05-08T04:30:02.653Z,0.77
2018-05-08T04:32:30.128Z,0.77
2018-05-08T04:34:57.625Z,0.53
2018-05-08T04:37:25.107Z,0.50
2018-05-08T04:39:52.588Z,0.70
2018-05-08T04:42:20.066Z,0.80
2018-05-08T04:44:47.560Z,0.93
2018-05-08T04:47:15.034Z,0.63
2018-05-08T04:49:42.568Z,0.90
2018-05-08T04:52:10.092Z,0.70
2018-05-08T04:54:38.368Z,0.93
2018-05-08T04:57:05.837Z,1.20
2018-05-08T04:59:33.405Z,0.80
2018-05-08T05:02:01.630Z,0.73
2018-05-08T05:04:29.924Z,0.70
2018-05-08T05:06:57.457Z,0.73
2018-05-08T05:09:24.944Z,0.80
2018-05-08T05:11:53.202Z,0.60
2018-05-08T05:14:20.784Z,0.80
2018-05-08T05:16:48.273Z,1.00
2018-05-08T05:19:16.008Z,0.90
2018-05-08T05:21:43.469Z,0.93
2018-05-08T05:24:10.964Z,1.30
2018-05-08T05:26:38.468Z,1.13
2018-05-08T05:29:06.233Z,1.13
2018-05-08T05:31:33.723Z,0.90
2018-05-08T05:34:02.026Z,1.37
2018-05-08T05:36:29.524Z,1.07
2018-05-08T05:38:57.185Z,1.27
2018-05-08T05:41:24.686Z,0.90
2018-05-08T05:43:52.208Z,1.20
2018-05-08T05:46:19.848Z,0.90
2018-05-08T05:48:47.333Z,0.73
2018-05-08T05:51:14.807Z,1.13
2018-05-08T05:53:43.811Z,1.23
2018-05-08T05:56:11.285Z,0.93
2018-05-08T05:58:38.776Z,0.73
2018-05-08T06:01:06.258Z,0.93
2018-05-08T06:03:33.744Z,1.10
2018-05-08T06:06:01.316Z,0.70
2018-05-08T06:08:28.810Z,0.90
2018-05-08T06:10:56.303Z,0.93
2018-05-08T06:13:25.272Z,0.77
2018-05-08T06:15:52.781Z,0.70
2018-05-08T06:18:20.251Z,0.87
2018-05-08T06:20:47.727Z,0.90
2018-05-08T06:23:15.196Z,0.80
2018-05-08T06:25:42.750Z,0.80
2018-05-08T06:28:10.924Z,1.00
2018-05-08T06:30:38.433Z,0.80
2018-05-08T06:33:06.332Z,0.90
2018-05-08T06:35:34.583Z,0.80
2018-05-08T06:38:02.055Z,0.80
2018-05-08T06:40:29.544Z,0.60
2018-05-08T06:42:57.016Z,0.63
2018-05-08T06:45:24.672Z,0.70
2018-05-08T06:47:52.149Z,0.80
2018-05-08T06:50:19.640Z,0.70
2018-05-08T06:52:47.934Z,0.50
2018-05-08T06:55:15.472Z,0.80
2018-05-08T06:57:43.150Z,0.63
2018-05-08T07:00:10.637Z,0.63
2018-05-08T07:02:38.204Z,0.60
2018-05-08T07:05:05.677Z,0.53
2018-05-08T07:07:33.136Z,0.60
2018-05-08T07:10:00.621Z,0.50
2018-05-08T07:12:28.096Z,0.83
2018-05-08T07:14:55.601Z,0.80
2018-05-08T07:17:23.096Z,0.90
2018-05-08T07:19:50.610Z,0.43
2018-05-08T07:22:18.076Z,0.60
2018-05-08T07:24:45.570Z,0.87
2018-05-08T07:27:13.807Z,0.70
2018-05-08T07:29:42.156Z,0.50
2018-05-08T07:32:10.393Z,0.67
2018-05-08T07:34:37.899Z,0.50
2018-05-08T07:37:05.356Z,0.60
2018-05-08T07:39:32.832Z,0.43
2018-05-08T07:42:00.314Z,0.50
2018-05-08T07:44:27.814Z,0.50
2018-05-08T07:46:55.296Z,0.60
2018-05-08T07:49:22.860Z,0.60
2018-05-08T07:51:50.341Z,0.70
2018-05-08T07:54:18.072Z,0.60
2018-05-08T07:56:46.346Z,1.00
2018-05-08T07:59:13.842Z,0.50
2018-05-08T08:01:41.385Z,0.63
2018-05-08T08:04:08.868Z,0.53
2018-05-08T08:06:36.340Z,0.60
2018-05-08T08:09:03.807Z,0.50
2018-05-08T08:11:31.309Z,0.80
2018-05-08T08:13:59.684Z,0.60
2018-05-08T08:16:27.202Z,0.50
2018-05-08T08:18:54.696Z,0.47
2018-05-08T08:21:22.196Z,0.80
2018-05-08T08:23:49.666Z,0.70
2018-05-08T08:26:17.165Z,0.63
2018-05-08T08:28:44.628Z,0.40
2018-05-08T08:31:12.885Z,0.30
2018-05-08T08:33:40.365Z,0.70
2018-05-08T08:36:07.851Z,0.85
2018-05-08T08:38:36.103Z,0.68
2018-05-08T08:41:03.643Z,0.50
2018-05-08T08:43:31.122Z,0.57
2018-05-08T08:45:58.613Z,0.40
2018-05-08T08:48:26.150Z,0.47
2018-05-08T08:50:53.678Z,0.50
2018-05-08T08:53:21.148Z,0.40
2018-05-08T08:55:48.639Z,0.60
2018-05-08T08:58:16.886Z,0.50
2018-05-08T09:00:44.380Z,0.40
2018-05-08T09:03:11.844Z,0.40
2018-05-08T09:05:39.338Z,0.55
2018-05-08T09:08:06.823Z,0.45
2018-05-08T09:10:35.079Z,0.40
2018-05-08T09:13:02.643Z,0.45
2018-05-08T09:15:30.836Z,0.40
2018-05-08T09:17:58.319Z,0.70
2018-05-08T09:20:25.809Z,0.50
2018-05-08T09:22:54.076Z,0.68
2018-05-08T09:25:21.568Z,0.45
2018-05-08T09:27:49.867Z,0.55
2018-05-08T09:30:17.303Z,0.40
2018-05-08T09:32:44.776Z,0.40
2018-05-08T09:35:12.264Z,0.45
2018-05-08T09:37:39.751Z,0.50
2018-05-08T09:40:08.035Z,0.50
2018-05-08T09:42:36.273Z,0.52
2018-05-08T09:45:03.766Z,0.60
2018-05-08T09:47:31.241Z,0.50
2018-05-08T09:49:58.787Z,0.47
2018-05-08T09:52:26.327Z,0.60
2018-05-08T09:54:54.067Z,0.62
2018-05-08T09:57:22.336Z,0.68
2018-05-08T09:59:49.811Z,0.60
2018-05-08T10:02:17.302Z,0.60
2018-05-08T10:04:44.777Z,0.40
2018-05-08T10:07:12.297Z,0.32
2018-05-08T10:09:39.766Z,0.55
2018-05-08T10:12:07.253Z,0.57
2018-05-08T10:14:34.732Z,0.55
2018-05-08T10:17:02.277Z,0.50
2018-05-08T10:19:29.742Z,0.40
2018-05-08T10:21:57.273Z,0.30
2018-05-08T10:24:24.797Z,0.50
2018-05-08T10:26:52.356Z,0.60
2018-05-08T10:29:19.839Z,0.45
2018-05-08T10:31:47.334Z,0.50
2018-05-08T10:34:14.805Z,0.52
2018-05-08T10:36:42.309Z,0.50
2018-05-08T10:39:09.777Z,0.45
2018-05-08T10:41:37.266Z,0.45
2018-05-08T10:44:05.501Z,0.70
2018-05-08T10:46:32.988Z,0.40
2018-05-08T10:49:00.489Z,0.30
2018-05-08T10:51:28.768Z,0.60
2018-05-08T10:53:56.320Z,0.50
2018-05-08T10:56:23.823Z,0.47
2018-05-08T10:58:51.358Z,0.47
2018-05-08T11:01:18.890Z,0.60
2018-05-08T11:03:46.482Z,0.65
2018-05-08T11:06:13.973Z,0.70
2018-05-08T11:08:41.458Z,0.60
2018-05-08T11:11:08.948Z,0.52
2018-05-08T11:13:36.446Z,0.40
2018-05-08T11:16:03.960Z,0.70
2018-05-08T11:18:31.424Z,0.60
2018-05-08T11:20:58.965Z,0.70
2018-05-08T11:23:26.661Z,0.70
2018-05-08T11:25:54.140Z,0.50
2018-05-08T11:28:21.636Z,0.40
2018-05-08T11:30:49.096Z,0.47
2018-05-08T11:33:16.580Z,0.60
2018-05-08T11:35:44.093Z,0.32
2018-05-08T11:38:11.585Z,0.47
2018-05-08T11:40:39.061Z,0.43
2018-05-08T11:43:06.572Z,0.47
2018-05-08T11:45:34.060Z,0.60
2018-05-08T11:48:02.332Z,0.60
2018-05-08T11:50:29.891Z,0.50
2018-05-08T11:52:58.203Z,0.30
2018-05-08T11:55:25.705Z,0.30
2018-05-08T11:57:53.184Z,0.40
2018-05-08T12:00:20.685Z,0.45
2018-05-08T12:02:48.162Z,0.60
2018-05-08T12:05:15.661Z,0.30
2018-05-08T12:07:43.153Z,0.50
2018-05-08T12:10:11.413Z,0.20
2018-05-08T12:12:38.883Z,0.35
2018-05-08T12:15:06.380Z,0.40
2018-05-08T12:17:34.613Z,0.55
2018-05-08T12:20:02.107Z,0.30
2018-05-08T12:22:29.616Z,0.30
2018-05-08T12:24:57.120Z,0.50
2018-05-08T12:27:24.800Z,0.65
2018-05-08T12:29:52.301Z,0.40
2018-05-08T12:32:19.769Z,0.50
2018-05-08T12:34:47.256Z,0.40
2018-05-08T12:37:15.508Z,0.30
2018-05-08T12:39:42.977Z,0.30
2018-05-08T12:42:10.589Z,0.30
2018-05-08T12:44:38.041Z,0.40
2018-05-08T12:47:05.526Z,0.52
2018-05-08T12:49:32.995Z,0.50
2018-05-08T12:52:00.524Z,0.30
2018-05-08T12:54:28.039Z,0.40
2018-05-08T12:56:56.316Z,0.30
2018-05-08T12:59:23.808Z,0.43
2018-05-08T13:01:52.064Z,0.60
2018-05-08T13:04:19.544Z,0.70
2018-05-08T13:06:47.040Z,0.43
2018-05-08T13:09:15.284Z,0.52
2018-05-08T13:11:42.764Z,0.70
2018-05-08T13:14:10.224Z,0.57
2018-05-08T13:16:37.728Z,0.40
2018-05-08T13:19:05.212Z,0.32
2018-05-08T13:21:33.452Z,0.57
2018-05-08T13:24:01.048Z,0.50
2018-05-08T13:26:28.823Z,0.43
2018-05-08T13:28:56.330Z,0.40
2018-05-08T13:31:24.576Z,0.37
2018-05-08T13:33:52.080Z,0.32
2018-05-08T13:36:19.552Z,0.40
2018-05-08T13:38:47.821Z,0.40
2018-05-08T13:41:15.315Z,0.50
2018-05-08T13:43:42.805Z,0.50
2018-05-08T13:46:12.409Z,0.50
2018-05-08T13:48:39.951Z,0.40
2018-05-08T13:51:07.418Z,0.40
2018-05-08T13:53:34.911Z,0.47
2018-05-08T13:56:02.600Z,0.40
2018-05-08T13:58:30.864Z,0.43
2018-05-08T14:00:58.369Z,0.57
2018-05-08T14:03:26.629Z,0.50
2018-05-08T14:05:54.156Z,0.50
2018-05-08T14:08:21.672Z,0.37
2018-05-08T14:10:49.160Z,0.65
2018-05-08T14:13:17.424Z,0.47
2018-05-08T14:15:45.031Z,0.50
2018-05-08T14:18:13.270Z,0.35
2018-05-08T14:20:40.758Z,0.37
2018-05-08T14:23:08.216Z,0.43
2018-05-08T14:25:36.488Z,0.40
2018-05-08T14:28:03.960Z,0.40
2018-05-08T14:30:31.441Z,0.30
2018-05-08T14:32:58.897Z,0.47
2018-05-08T14:35:26.408Z,0.30
2018-05-08T14:37:53.931Z,0.43
2018-05-08T14:40:21.734Z,0.22
2018-05-08T14:42:49.281Z,0.20
2018-05-08T14:45:16.781Z,0.30
2018-05-08T14:47:44.274Z,0.30
2018-05-08T14:50:11.740Z,0.40
2018-05-08T14:52:39.243Z,0.57
2018-05-08T14:55:07.480Z,0.43
2018-05-08T14:57:34.971Z,0.57
2018-05-08T15:00:02.457Z,0.30
2018-05-08T15:02:29.952Z,0.30
2018-05-08T15:04:58.184Z,0.30
2018-05-08T15:07:25.935Z,0.50
2018-05-08T15:09:53.488Z,0.40
2018-05-08T15:12:21.780Z,0.52
2018-05-08T15:14:49.274Z,0.35
2018-05-08T15:17:16.760Z,0.45
2018-05-08T15:19:44.222Z,0.50
2018-05-08T15:22:11.708Z,0.40
2018-05-08T15:24:39.177Z,0.20
2018-05-08T15:27:06.660Z,0.30
2018-05-08T15:29:34.134Z,0.20
2018-05-08T15:32:01.622Z,0.40
2018-05-08T15:34:29.107Z,0.40
2018-05-08T15:36:57.372Z,0.40
2018-05-08T15:39:24.884Z,0.40
2018-05-08T15:41:52.368Z,0.63
2018-05-08T15:44:19.860Z,0.57
2018-05-08T15:46:47.365Z,0.43
2018-05-08T15:49:14.846Z,0.50
2018-05-08T15:51:42.308Z,0.57
2018-05-08T15:54:09.796Z,0.53
2018-05-08T15:56:37.292Z,0.40
2018-05-08T15:59:04.785Z,0.40
2018-05-08T16:01:32.248Z,0.50
2018-05-08T16:03:59.730Z,0.30
2018-05-08T16:06:27.359Z,0.50
2018-05-08T16:08:55.634Z,0.30
2018-05-08T16:11:23.168Z,0.40
2018-05-08T16:13:50.784Z,0.30
2018-05-08T16:16:18.302Z,0.37
2018-05-08T16:18:45.780Z,0.73
2018-05-08T16:21:13.266Z,0.40
2018-05-08T16:23:40.749Z,0.50
2018-05-08T16:26:08.240Z,0.53
2018-05-08T16:28:36.507Z,0.40
2018-05-08T16:31:03.992Z,0.53
2018-05-08T16:33:32.229Z,0.40
2018-05-08T16:35:59.714Z,0.40
2018-05-08T16:38:27.229Z,0.40
2018-05-08T16:40:55.532Z,0.40
2018-05-08T16:43:23.032Z,0.30
2018-05-08T16:45:50.568Z,0.47
2018-05-08T16:48:18.886Z,0.50
2018-05-08T16:50:47.124Z,0.43
2018-05-08T16:53:14.634Z,0.50
2018-05-08T16:55:42.886Z,0.50
2018-05-08T16:58:10.368Z,0.50
2018-05-08T17:00:37.879Z,0.30
2018-05-08T17:03:05.348Z,0.50
2018-05-08T17:05:32.821Z,0.50
2018-05-08T17:08:00.329Z,0.33
2018-05-08T17:10:27.883Z,0.60
2018-05-08T17:12:55.381Z,0.40
2018-05-08T17:15:22.933Z,0.40
2018-05-08T17:17:50.548Z,0.50
2018-05-08T17:20:18.820Z,0.80
2018-05-08T17:22:46.332Z,0.50
2018-05-08T17:25:13.797Z,0.47
2018-05-08T17:27:42.040Z,0.43
2018-05-08T17:30:09.510Z,0.40
2018-05-08T17:32:37.004Z,0.63
2018-05-08T17:35:04.477Z,0.53
2018-05-08T17:37:31.993Z,0.63
2018-05-08T17:39:59.480Z,0.50
2018-05-08T17:42:26.991Z,0.50
2018-05-08T17:44:54.550Z,0.40
2018-05-08T17:47:23.557Z,0.50
2018-05-08T17:49:51.094Z,0.50
2018-05-08T17:52:18.573Z,0.70
2018-05-08T17:54:46.066Z,0.50
2018-05-08T17:57:13.544Z,0.53
2018-05-08T17:59:41.036Z,0.70
2018-05-08T18:02:08.512Z,0.60
2018-05-08T18:04:36.768Z,0.50
2018-05-08T18:07:05.009Z,0.40
2018-05-08T18:09:32.508Z,0.60
2018-05-08T18:11:59.978Z,0.50
2018-05-08T18:14:27.473Z,0.63
2018-05-08T18:16:54.949Z,0.40
2018-05-08T18:19:22.467Z,0.60
2018-05-08T18:21:50.854Z,0.63
2018-05-08T18:24:18.386Z,0.50
2018-05-08T18:26:46.647Z,0.50
2018-05-08T18:29:14.116Z,0.53
2018-05-08T18:31:41.609Z,1.20
2018-05-08T18:34:09.117Z,0.63
2018-05-08T18:36:37.423Z,0.70
2018-05-08T18:39:05.675Z,0.50
2018-05-08T18:41:33.168Z,0.57
2018-05-08T18:44:01.458Z,0.63
2018-05-08T18:46:28.972Z,0.73
2018-05-08T18:48:56.464Z,0.53
2018-05-08T18:51:23.986Z,0.70
2018-05-08T18:53:51.509Z,0.77
2018-05-08T18:56:19.075Z,1.00
2018-05-08T18:58:46.544Z,1.03
2018-05-08T19:01:14.014Z,1.07
2018-05-08T19:03:41.600Z,0.70
2018-05-08T19:06:08.996Z,0.80
2018-05-08T19:08:37.265Z,0.70
2018-05-08T19:11:10.431Z,0.70
2018-05-08T19:13:37.930Z,0.90
2018-05-08T19:16:05.412Z,0.80
2018-05-08T19:18:38.661Z,1.10
2018-05-08T19:21:06.198Z,0.90
2018-05-08T19:23:33.699Z,0.77
2018-05-08T19:26:01.204Z,0.83
2018-05-08T19:28:34.320Z,0.70
2018-05-08T19:31:01.788Z,0.90
2018-05-08T19:33:30.059Z,0.70
2018-05-08T19:36:03.402Z,0.67
2018-05-08T19:38:30.907Z,0.93
2018-05-08T19:40:59.144Z,0.97
2018-05-08T19:43:26.624Z,0.70
2018-05-08T19:45:54.126Z,0.80
2018-05-08T19:48:21.682Z,0.80
2018-05-08T19:50:49.267Z,0.73
2018-05-08T19:53:16.757Z,0.80
2018-05-08T19:55:45.015Z,0.80
2018-05-08T19:58:12.490Z,0.87
2018-05-08T20:00:39.988Z,1.00
2018-05-08T20:03:08.220Z,0.93
2018-05-08T20:05:35.836Z,0.90
2018-05-08T20:08:03.296Z,0.93
2018-05-08T20:10:30.806Z,0.70
2018-05-08T20:12:58.298Z,0.80
2018-05-08T20:15:25.779Z,0.77
2018-05-08T20:17:53.289Z,1.13
2018-05-08T20:20:20.759Z,0.67
2018-05-08T20:22:48.313Z,0.80
2018-05-08T20:25:15.778Z,1.07
2018-05-08T20:27:43.884Z,0.73
2018-05-08T20:30:11.361Z,0.87
2018-05-08T20:32:38.864Z,0.80
2018-05-08T20:35:06.350Z,0.80
2018-05-08T20:37:33.868Z,1.63
2018-05-08T20:40:01.340Z,0.70
2018-05-08T20:42:28.832Z,1.03
2018-05-08T20:44:57.073Z,0.90
2018-05-08T20:47:24.713Z,1.07
2018-05-08T20:49:52.188Z,1.03
2018-05-08T20:52:19.695Z,1.00
2018-05-08T20:54:48.081Z,1.10
2018-05-08T20:57:18.514Z,0.90
2018-05-08T20:59:46.072Z,1.20
2018-05-08T21:02:13.554Z,1.10
2018-05-08T21:04:41.040Z,0.90
2018-05-08T21:07:08.525Z,1.00
2018-05-08T21:09:37.016Z,0.80
2018-05-08T21:12:05.698Z,1.10
2018-05-08T21:14:33.191Z,1.10
2018-05-08T21:17:00.666Z,0.80
2018-05-08T21:19:28.140Z,1.03
2018-05-08T21:21:55.636Z,1.00
2018-05-08T21:24:23.152Z,0.90
2018-05-08T21:26:51.416Z,1.00
2018-05-08T21:29:25.493Z,1.07
2018-05-08T21:31:52.957Z,0.90
2018-05-08T21:34:20.480Z,0.90
2018-05-08T21:36:48.713Z,1.10
2018-05-08T21:39:16.226Z,0.83
2018-05-08T21:41:43.741Z,1.13
2018-05-08T21:44:11.205Z,0.70
2018-05-08T21:46:38.692Z,1.23
2018-05-08T21:49:06.210Z,0.80
2018-05-08T21:51:33.713Z,0.90
2018-05-08T21:54:01.946Z,0.80
2018-05-08T21:56:29.459Z,1.07
2018-05-08T21:58:56.927Z,0.90
2018-05-08T22:01:25.189Z,1.00
2018-05-08T22:03:52.768Z,1.00
2018-05-08T22:06:20.272Z,0.80
2018-05-08T22:08:48.518Z,0.87
2018-05-08T22:11:15.996Z,0.90
2018-05-08T22:13:43.570Z,0.70
2018-05-08T22:16:11.057Z,0.90
2018-05-08T22:18:39.329Z,1.00
2018-05-08T22:21:06.824Z,1.10
2018-05-08T22:23:35.124Z,1.00
2018-05-08T22:26:03.361Z,0.90
2018-05-08T22:28:31.666Z,0.70
2018-05-08T22:30:59.132Z,0.83
2018-05-08T22:33:26.727Z,1.27
2018-05-08T22:35:54.216Z,1.10
2018-05-08T22:38:22.485Z,0.93
2018-05-08T22:40:50.008Z,1.23
2018-05-08T22:43:17.537Z,1.03
2018-05-08T22:45:45.058Z,0.93
2018-05-08T22:48:12.738Z,1.10
2018-05-08T22:50:40.258Z,0.80
2018-05-08T22:53:08.498Z,0.93
2018-05-08T22:55:36.027Z,0.90
2018-05-08T22:58:03.501Z,1.37
2018-05-08T23:00:31.753Z,1.00
2018-05-08T23:02:59.236Z,1.13
2018-05-08T23:05:26.871Z,1.03
2018-05-08T23:07:54.404Z,1.03
2018-05-08T23:10:22.678Z,1.17
2018-05-08T23:12:50.159Z,0.90
2018-05-08T23:15:18.431Z,1.00
2018-05-08T23:17:46.075Z,0.80
2018-05-08T23:20:13.572Z,0.90
2018-05-08T23:22:41.055Z,1.13
2018-05-08T23:25:08.520Z,0.70
2018-05-08T23:27:36.022Z,0.77
2018-05-08T23:30:04.263Z,1.00
2018-05-08T23:32:31.802Z,0.90
2018-05-08T23:34:59.231Z,0.67
2018-05-08T23:37:26.904Z,0.83
2018-05-08T23:39:54.392Z,0.83
2018-05-08T23:42:22.651Z,0.70
2018-05-08T23:44:50.140Z,1.10
2018-05-08T23:47:17.656Z,1.20
2018-05-08T23:49:45.138Z,0.63
2018-05-08T23:52:12.653Z,0.97
2018-05-08T23:54:40.142Z,0.90
2018-05-08T23:57:08.396Z,0.97
2018-05-08T23:59:35.881Z,0.70
